Time;durP1;ratioP1;P1;durP2;ratioP2;P2;SDS_P1;SDS_P2;PMS_P1;PMS_P2;Temp;Humidity;BMP_temperature;BMP_pressure;BME280_temperature;BME280_humidity;BME280_pressure;Samples;Min_cycle;Max_cycle;Signal;HPM_P1;HPM_P2
2022/12/19 00:00:24;;;;;;;14.03;12.50;;;0.00;99.90;;;;;;5031016;28;20217;-67
2022/12/19 00:02:49;;;;;;;12.60;11.30;;;0.00;99.90;;;;;;5031190;28;20188;-66
2022/12/19 00:05:15;;;;;;;11.93;10.77;;;0.00;99.90;;;;;;5031302;28;20536;-66
2022/12/19 00:07:40;;;;;;;13.07;11.93;;;0.10;99.90;;;;;;5030903;28;20332;-67
2022/12/19 00:10:07;;;;;;;13.47;10.60;;;0.10;99.90;;;;;;5030941;28;20202;-66
2022/12/19 00:12:32;;;;;;;16.57;12.33;;;0.10;99.90;;;;;;5031246;28;20206;-66
2022/12/19 00:14:58;;;;;;;16.07;10.83;;;0.10;99.90;;;;;;5031418;28;20547;-65
2022/12/19 00:17:23;;;;;;;22.20;14.30;;;0.20;99.90;;;;;;5030688;28;20292;-66
2022/12/19 00:19:49;;;;;;;19.10;14.80;;;0.10;99.90;;;;;;5031130;28;20168;-68
2022/12/19 00:22:14;;;;;;;15.53;12.10;;;0.20;99.90;;;;;;5030884;28;20648;-65
2022/12/19 00:24:40;;;;;;;18.17;9.57;;;0.20;99.90;;;;;;5031162;28;20183;-67
2022/12/19 00:27:05;;;;;;;12.50;10.93;;;0.20;99.90;;;;;;5030893;28;20218;-66
2022/12/19 00:29:31;;;;;;;14.07;9.57;;;0.30;99.90;;;;;;5030364;28;20223;-65
2022/12/19 00:31:57;;;;;;;12.27;11.00;;;0.30;99.90;;;;;;5030606;28;20270;-64
2022/12/19 00:34:22;;;;;;;16.63;11.23;;;0.30;99.90;;;;;;5030789;28;20187;-66
2022/12/19 00:36:48;;;;;;;14.20;12.90;;;0.30;99.90;;;;;;5030778;28;20219;-66
2022/12/19 00:39:14;;;;;;;13.50;10.80;;;0.30;99.90;;;;;;5030668;28;20656;-66
2022/12/19 00:41:40;;;;;;;16.90;10.67;;;0.30;99.90;;;;;;5012786;28;20541;-66
2022/12/19 00:44:09;;;;;;;12.17;10.03;;;0.30;99.90;;;;;;5030769;28;20182;-66
2022/12/19 00:46:35;;;;;;;12.53;11.27;;;0.40;99.90;;;;;;5030503;28;20215;-65
2022/12/19 00:49:01;;;;;;;14.47;12.27;;;0.40;99.90;;;;;;5033965;28;20294;-65
2022/12/19 00:51:30;;;;;;;17.67;11.87;;;0.40;99.90;;;;;;5034070;28;20597;-65
2022/12/19 00:53:57;;;;;;;14.63;12.40;;;0.40;99.90;;;;;;5034385;28;20226;-65
2022/12/19 00:56:25;;;;;;;10.33;9.40;;;0.40;99.90;;;;;;5034292;28;20199;-65
2022/12/19 00:58:52;;;;;;;10.33;9.53;;;0.40;99.90;;;;;;5034069;28;20302;-65
2022/12/19 01:01:23;;;;;;;10.73;9.83;;;0.50;99.90;;;;;;5033776;28;20570;-65
2022/12/19 01:03:49;;;;;;;10.80;9.83;;;0.50;99.90;;;;;;5016331;28;20551;-65
2022/12/19 01:06:15;;;;;;;12.53;11.23;;;0.50;99.90;;;;;;5034224;28;20176;-64
2022/12/19 01:08:40;;;;;;;18.60;12.37;;;0.50;99.90;;;;;;5033792;28;20203;-65
2022/12/19 01:11:06;;;;;;;21.60;11.27;;;0.50;99.90;;;;;;5033873;28;20550;-66
2022/12/19 01:13:35;;;;;;;11.90;10.70;;;0.50;99.90;;;;;;5033687;28;20196;-64
2022/12/19 01:16:05;;;;;;;17.80;14.37;;;0.60;99.90;;;;;;5034006;28;20210;-65
2022/12/19 01:18:31;;;;;;;17.97;10.57;;;0.60;99.90;;;;;;5033631;28;20199;-66
2022/12/19 01:21:00;;;;;;;15.60;11.70;;;0.60;99.90;;;;;;5033695;28;20203;-66
2022/12/19 01:23:26;;;;;;;19.57;12.57;;;0.70;99.90;;;;;;5033655;28;20266;-65
2022/12/19 01:25:53;;;;;;;13.47;11.33;;;0.70;99.90;;;;;;5033684;28;20175;-64
2022/12/19 01:28:19;;;;;;;15.73;12.97;;;0.70;99.90;;;;;;5033574;28;20231;-66
2022/12/19 01:30:45;;;;;;;16.97;14.13;;;0.70;99.90;;;;;;5033550;28;20211;-64
2022/12/19 01:33:12;;;;;;;14.33;12.40;;;0.70;99.90;;;;;;5032513;28;20229;-65
2022/12/19 01:35:38;;;;;;;15.53;10.90;;;0.70;99.90;;;;;;5033616;28;20192;-65
2022/12/19 01:38:04;;;;;;;14.73;11.40;;;0.70;99.90;;;;;;5033386;28;20245;-65
2022/12/19 01:40:30;;;;;;;14.53;13.30;;;0.70;99.90;;;;;;5033289;28;20183;-65
2022/12/19 01:42:56;;;;;;;12.90;11.67;;;0.80;99.90;;;;;;5015507;28;20535;-65
2022/12/19 01:45:23;;;;;;;11.80;10.60;;;0.80;99.90;;;;;;5033350;28;20201;-65
2022/12/19 01:47:55;;;;;;;12.80;11.30;;;0.80;99.90;;;;;;5033704;28;20214;-66
2022/12/19 01:50:55;;;;;;;13.93;11.67;;;0.80;99.90;;;;;;5015096;28;20195;-65
2022/12/19 01:53:24;;;;;;;13.07;11.37;;;0.80;99.90;;;;;;5033453;28;20689;-66
2022/12/19 01:55:50;;;;;;;12.30;10.43;;;0.80;99.90;;;;;;5033037;28;20760;-64
2022/12/19 01:58:16;;;;;;;13.33;11.03;;;0.90;99.90;;;;;;5032986;28;20278;-65
2022/12/19 02:00:43;;;;;;;17.13;12.73;;;0.90;99.90;;;;;;5032755;28;20641;-65
2022/12/19 02:03:27;;;;;;;13.67;11.93;;;0.90;99.90;;;;;;5033235;28;20180;-65
2022/12/19 02:05:54;;;;;;;16.00;10.53;;;0.90;99.90;;;;;;5032904;28;20175;-65
2022/12/19 02:08:21;;;;;;;14.33;13.23;;;0.90;99.90;;;;;;5033014;28;20291;-65
2022/12/19 02:10:47;;;;;;;12.43;11.23;;;0.90;99.90;;;;;;5014923;28;20238;-65
2022/12/19 02:13:13;;;;;;;16.57;10.67;;;0.90;99.90;;;;;;5033253;28;20200;-66
2022/12/19 02:15:56;;;;;;;14.83;13.33;;;0.90;99.90;;;;;;5032617;28;20191;-65
2022/12/19 02:18:45;;;;;;;11.40;10.37;;;1.00;99.90;;;;;;5032924;28;20580;-64
2022/12/19 02:21:55;;;;;;;18.27;13.13;;;1.00;99.90;;;;;;5032127;28;20188;-65
2022/12/19 02:24:43;;;;;;;15.93;12.67;;;1.00;99.90;;;;;;5032759;28;20183;-65
2022/12/19 02:27:53;;;;;;;11.67;10.53;;;1.00;99.90;;;;;;5032806;28;20183;-66
2022/12/19 02:30:48;;;;;;;13.63;12.13;;;1.10;99.90;;;;;;5032584;28;20237;-64
2022/12/19 02:33:27;;;;;;;9.33;8.60;;;1.10;99.90;;;;;;5031412;28;20653;-64
2022/12/19 02:36:00;;;;;;;16.47;12.07;;;1.10;99.90;;;;;;5031992;28;20657;-64
2022/12/19 02:38:35;;;;;;;13.70;11.33;;;1.10;99.90;;;;;;5032319;28;20286;-65
2022/12/19 02:41:09;;;;;;;24.07;12.27;;;1.10;99.90;;;;;;5032635;28;20196;-64
2022/12/19 02:43:40;;;;;;;21.43;12.73;;;1.10;99.90;;;;;;5032186;28;20613;-64
2022/12/19 02:46:07;;;;;;;14.50;12.20;;;1.20;99.90;;;;;;5032845;28;20526;-64
2022/12/19 02:48:33;;;;;;;14.90;12.40;;;1.20;99.90;;;;;;5032044;28;20203;-64
2022/12/19 02:50:59;;;;;;;18.57;11.73;;;1.20;99.90;;;;;;5032142;28;20183;-65
2022/12/19 02:53:25;;;;;;;14.00;11.70;;;1.20;99.90;;;;;;5032162;28;20229;-65
2022/12/19 02:56:05;;;;;;;16.53;12.57;;;1.20;99.90;;;;;;5032353;28;20207;-65
2022/12/19 02:58:40;;;;;;;13.83;12.07;;;1.20;99.90;;;;;;5032013;28;20223;-65
2022/12/19 03:01:26;;;;;;;14.67;12.00;;;1.20;99.90;;;;;;5031881;28;20177;-64
2022/12/19 03:04:17;;;;;;;11.40;10.40;;;1.20;99.90;;;;;;5031675;28;20616;-64
2022/12/19 03:07:00;;;;;;;17.63;10.57;;;1.20;99.90;;;;;;5032002;28;20179;-64
2022/12/19 03:09:26;;;;;;;14.17;11.37;;;1.20;99.90;;;;;;5031541;28;20209;-65
2022/12/19 03:12:00;;;;;;;19.10;11.90;;;1.20;99.90;;;;;;5031393;28;20187;-65
2022/12/19 03:14:28;;;;;;;12.80;10.87;;;1.20;99.90;;;;;;5032331;28;20193;-65
2022/12/19 03:16:54;;;;;;;13.90;11.10;;;1.20;99.90;;;;;;5032179;28;20268;-65
2022/12/19 03:19:19;;;;;;;15.27;10.93;;;1.30;99.90;;;;;;5013815;28;20199;-65
2022/12/19 03:21:48;;;;;;;19.50;11.87;;;1.30;99.90;;;;;;5031631;28;20179;-65
2022/12/19 03:24:15;;;;;;;13.00;11.70;;;1.30;99.90;;;;;;5032005;28;20274;-65
2022/12/19 03:26:52;;;;;;;19.07;12.20;;;1.30;99.90;;;;;;5031574;28;20543;-65
2022/12/19 03:29:32;;;;;;;11.27;10.23;;;1.30;99.90;;;;;;5031319;28;20214;-65
2022/12/19 03:32:02;;;;;;;14.53;11.70;;;1.40;99.90;;;;;;5031826;28;20179;-65
2022/12/19 03:34:38;;;;;;;15.20;11.03;;;1.30;99.90;;;;;;5031486;28;20183;-65
2022/12/19 03:37:06;;;;;;;14.60;10.97;;;1.40;99.90;;;;;;5031798;28;20293;-65
2022/12/19 03:39:33;;;;;;;12.77;11.17;;;1.40;99.90;;;;;;5030982;28;20261;-65
2022/12/19 03:44:48;;;;;;;15.10;11.10;;;1.40;99.90;;;;;;5031752;28;20195;-65
2022/12/19 03:47:22;;;;;;;18.13;12.50;;;1.40;99.90;;;;;;5031597;28;20592;-64
2022/12/19 03:49:49;;;;;;;12.00;10.27;;;1.40;99.90;;;;;;5031029;28;20244;-64
2022/12/19 03:52:14;;;;;;;10.87;9.77;;;1.40;99.90;;;;;;5031585;28;20230;-65
2022/12/19 03:54:47;;;;;;;11.10;10.03;;;1.40;99.90;;;;;;5031283;28;20195;-65
2022/12/19 03:57:21;;;;;;;13.50;10.00;;;1.40;99.90;;;;;;5031455;28;20270;-65
2022/12/19 03:59:51;;;;;;;13.23;12.03;;;1.40;99.90;;;;;;5030889;28;20249;-65
2022/12/19 04:02:19;;;;;;;14.00;12.13;;;1.40;99.90;;;;;;5031359;28;20217;-65
2022/12/19 04:04:54;;;;;;;17.50;12.13;;;1.40;99.90;;;;;;5031235;28;20191;-65
2022/12/19 04:07:21;;;;;;;19.17;10.73;;;1.40;99.90;;;;;;5031615;28;20190;-65
2022/12/19 04:09:48;;;;;;;14.63;12.30;;;1.40;99.90;;;;;;5013146;28;20241;-65
2022/12/19 04:12:29;;;;;;;17.40;11.73;;;1.40;99.90;;;;;;5031154;28;20190;-65
2022/12/19 04:14:55;;;;;;;11.33;10.33;;;1.40;99.90;;;;;;5031225;28;20668;-65
2022/12/19 04:17:41;;;;;;;13.13;11.33;;;1.40;99.90;;;;;;5031243;28;20368;-65
2022/12/19 04:20:13;;;;;;;17.77;12.63;;;1.40;99.90;;;;;;5030721;28;20211;-65
2022/12/19 04:22:48;;;;;;;21.97;12.03;;;1.40;99.90;;;;;;5034487;28;20726;-65
2022/12/19 04:25:18;;;;;;;12.60;11.33;;;1.40;99.90;;;;;;5017313;28;20187;-65
2022/12/19 04:27:51;;;;;;;19.23;12.80;;;1.40;99.90;;;;;;5035120;28;20195;-65
2022/12/19 04:30:17;;;;;;;15.73;12.67;;;1.40;99.90;;;;;;5034563;28;20207;-65
2022/12/19 04:32:44;;;;;;;13.47;10.73;;;1.50;99.90;;;;;;5017477;28;20648;-66
2022/12/19 04:35:10;;;;;;;20.50;11.40;;;1.50;99.90;;;;;;5034921;28;20195;-65
2022/12/19 04:37:36;;;;;;;12.00;10.90;;;1.50;99.90;;;;;;5034927;28;20215;-65
2022/12/19 04:40:02;;;;;;;15.07;12.00;;;1.50;99.90;;;;;;5034492;28;20185;-65
2022/12/19 04:42:28;;;;;;;16.80;12.03;;;1.50;99.90;;;;;;5035118;28;20179;-65
2022/12/19 04:44:53;;;;;;;11.67;10.53;;;1.50;99.90;;;;;;5034899;28;20190;-65
2022/12/19 04:47:19;;;;;;;14.07;12.60;;;1.60;99.90;;;;;;5035101;28;20183;-65
2022/12/19 04:49:45;;;;;;;17.23;13.57;;;1.60;99.90;;;;;;5034257;28;20190;-64
2022/12/19 04:52:10;;;;;;;23.27;12.30;;;1.60;99.90;;;;;;5034752;28;20198;-65
2022/12/19 04:54:36;;;;;;;14.40;11.27;;;1.60;99.90;;;;;;5034726;28;20695;-64
2022/12/19 04:57:02;;;;;;;12.17;11.13;;;1.70;99.90;;;;;;5034786;28;20807;-65
2022/12/19 04:59:27;;;;;;;12.27;10.73;;;1.70;99.90;;;;;;5034090;28;20652;-64
2022/12/19 05:01:53;;;;;;;14.47;12.37;;;1.70;99.90;;;;;;5034531;28;20178;-64
2022/12/19 05:04:19;;;;;;;14.57;11.67;;;1.70;99.90;;;;;;5034788;28;20179;-65
2022/12/19 05:06:44;;;;;;;16.37;13.93;;;1.80;99.90;;;;;;5034418;28;20665;-65
2022/12/19 05:09:11;;;;;;;19.70;13.53;;;1.80;99.90;;;;;;5033952;28;20253;-65
2022/12/19 05:11:36;;;;;;;23.97;12.17;;;1.80;99.90;;;;;;5034400;28;20179;-65
2022/12/19 05:14:02;;;;;;;11.80;9.77;;;1.80;99.90;;;;;;5034147;28;20186;-65
2022/12/19 05:16:28;;;;;;;15.77;12.73;;;1.80;99.90;;;;;;5034264;28;20211;-65
2022/12/19 05:18:54;;;;;;;15.80;12.47;;;1.90;99.90;;;;;;5034037;28;20287;-66
2022/12/19 05:21:20;;;;;;;18.77;12.70;;;1.90;99.90;;;;;;5033867;28;20266;-66
2022/12/19 05:23:46;;;;;;;14.20;12.03;;;1.90;99.90;;;;;;5034349;28;20160;-66
2022/12/19 05:26:12;;;;;;;12.13;10.97;;;1.90;99.90;;;;;;5033681;28;20515;-65
2022/12/19 05:28:38;;;;;;;18.67;12.73;;;1.90;99.90;;;;;;5034204;28;20203;-66
2022/12/19 05:31:08;;;;;;;11.23;10.03;;;1.90;99.90;;;;;;5015767;28;20223;-66
2022/12/19 05:33:35;;;;;;;12.10;10.63;;;1.90;99.90;;;;;;5033119;28;20172;-66
2022/12/19 05:36:01;;;;;;;21.03;11.93;;;1.90;99.90;;;;;;5033373;28;20203;-64
2022/12/19 05:38:27;;;;;;;18.27;14.30;;;1.90;99.90;;;;;;5033859;28;20199;-66
2022/12/19 05:40:53;;;;;;;16.63;11.57;;;1.90;99.90;;;;;;5033394;28;20180;-66
2022/12/19 05:43:18;;;;;;;12.87;11.53;;;1.90;99.90;;;;;;5033887;28;20581;-65
2022/12/19 05:45:44;;;;;;;14.13;11.47;;;2.00;99.90;;;;;;5033511;28;20184;-65
2022/12/19 05:48:10;;;;;;;15.07;13.37;;;1.90;99.90;;;;;;5033600;28;20191;-65
2022/12/19 05:50:35;;;;;;;12.87;10.40;;;2.00;99.90;;;;;;5033240;28;20612;-65
2022/12/19 05:53:01;;;;;;;19.73;13.43;;;2.00;99.90;;;;;;5033749;28;20251;-65
2022/12/19 05:55:26;;;;;;;14.40;11.90;;;2.00;99.90;;;;;;5033400;28;20187;-65
2022/12/19 05:57:52;;;;;;;13.93;11.93;;;2.00;99.90;;;;;;5033383;28;20199;-65
2022/12/19 06:00:18;;;;;;;18.10;14.10;;;2.00;99.90;;;;;;5032987;28;20635;-65
2022/12/19 06:02:43;;;;;;;16.63;13.90;;;2.00;99.90;;;;;;5033517;28;20168;-65
2022/12/19 06:05:09;;;;;;;12.53;11.53;;;2.00;99.90;;;;;;5033212;28;20179;-65
2022/12/19 06:07:34;;;;;;;18.47;13.33;;;2.00;99.90;;;;;;5033362;28;20612;-65
2022/12/19 06:10:00;;;;;;;15.37;12.73;;;2.10;99.90;;;;;;5033076;28;20175;-64
2022/12/19 06:12:26;;;;;;;14.13;12.73;;;2.10;99.90;;;;;;5033351;28;20175;-65
2022/12/19 06:14:51;;;;;;;13.70;12.07;;;2.10;99.90;;;;;;5033252;28;20180;-65
2022/12/19 06:17:17;;;;;;;15.30;10.70;;;2.10;99.90;;;;;;5032982;28;20238;-65
2022/12/19 06:19:43;;;;;;;30.20;13.33;;;2.20;99.90;;;;;;5032930;28;20170;-65
2022/12/19 06:22:09;;;;;;;17.43;13.87;;;2.10;99.90;;;;;;5033384;28;20176;-65
2022/12/19 06:24:34;;;;;;;13.80;12.47;;;2.20;99.90;;;;;;5033062;28;20171;-65
2022/12/19 06:27:00;;;;;;;13.43;12.03;;;2.20;99.90;;;;;;5033173;28;20566;-65
2022/12/19 06:29:25;;;;;;;18.13;12.63;;;2.20;99.90;;;;;;5033042;28;20298;-66
2022/12/19 06:31:51;;;;;;;18.53;13.30;;;2.20;99.90;;;;;;5032760;28;20582;-66
2022/12/19 06:34:17;;;;;;;15.43;12.63;;;2.30;99.90;;;;;;5032883;28;20171;-66
2022/12/19 06:36:42;;;;;;;13.23;12.00;;;2.30;99.90;;;;;;5032748;28;20195;-65
2022/12/19 06:39:11;;;;;;;12.60;10.20;;;2.30;99.90;;;;;;5032981;28;20748;-65
2022/12/19 06:44:21;;;;;;;14.67;12.97;;;2.40;99.90;;;;;;5032107;28;20178;-65
2022/12/19 06:46:47;;;;;;;14.93;13.33;;;2.40;99.90;;;;;;5032315;28;20632;-65
2022/12/19 06:49:12;;;;;;;15.07;11.53;;;2.40;99.90;;;;;;5032599;28;20199;-65
2022/12/19 06:51:38;;;;;;;14.60;13.10;;;2.40;99.90;;;;;;5032737;28;20171;-65
2022/12/19 06:54:04;;;;;;;11.87;10.43;;;2.40;99.90;;;;;;5032528;28;20683;-65
2022/12/19 06:56:37;;;;;;;17.13;11.63;;;2.40;99.90;;;;;;5032542;28;20317;-65
2022/12/19 06:59:04;;;;;;;21.87;12.70;;;2.40;99.90;;;;;;5032519;28;20695;-65
2022/12/19 07:01:58;;;;;;;23.40;11.97;;;2.50;99.90;;;;;;5032402;28;20168;-65
2022/12/19 07:04:34;;;;;;;12.60;11.40;;;2.50;99.90;;;;;;5032302;28;20190;-66
2022/12/19 07:07:00;;;;;;;20.57;12.03;;;2.50;99.90;;;;;;5032902;28;20271;-66
2022/12/19 07:09:27;;;;;;;17.07;13.00;;;2.60;99.90;;;;;;5032055;28;20892;-66
2022/12/19 07:11:52;;;;;;;16.80;12.00;;;2.60;99.90;;;;;;5032212;28;20168;-66
2022/12/19 07:14:18;;;;;;;15.97;12.13;;;2.60;99.90;;;;;;5031927;28;20189;-66
2022/12/19 07:16:45;;;;;;;12.17;10.93;;;2.60;99.90;;;;;;5032259;28;20207;-66
2022/12/19 07:19:11;;;;;;;16.43;11.93;;;2.70;99.90;;;;;;5014198;28;20534;-65
2022/12/19 07:21:37;;;;;;;12.63;11.47;;;2.70;99.90;;;;;;5014790;28;20206;-65
2022/12/19 07:24:04;;;;;;;13.73;12.00;;;2.70;99.90;;;;;;5013531;28;20182;-66
2022/12/19 07:26:30;;;;;;;15.60;11.17;;;2.70;99.90;;;;;;5014001;28;20187;-66
2022/12/19 07:28:58;;;;;;;16.20;12.47;;;2.80;99.90;;;;;;5031114;28;20231;-66
2022/12/19 07:31:24;;;;;;;21.93;14.63;;;2.80;99.90;;;;;;5031043;28;20190;-66
2022/12/19 07:33:50;;;;;;;21.53;11.77;;;2.90;99.90;;;;;;5031300;28;20187;-66
2022/12/19 07:36:15;;;;;;;14.60;12.50;;;2.80;99.90;;;;;;5031297;28;20298;-66
2022/12/19 07:38:41;;;;;;;15.93;12.40;;;2.90;99.90;;;;;;5031336;28;20198;-66
2022/12/19 07:41:06;;;;;;;13.93;12.63;;;2.90;99.90;;;;;;5031503;28;20229;-66
2022/12/19 07:43:32;;;;;;;15.57;11.40;;;2.90;99.90;;;;;;5013129;28;20637;-66
2022/12/19 07:45:58;;;;;;;13.23;11.87;;;2.90;99.90;;;;;;5031466;28;20191;-66
2022/12/19 07:48:23;;;;;;;21.87;12.87;;;2.90;99.90;;;;;;5013281;28;21374;-66
2022/12/19 07:50:49;;;;;;;16.67;11.67;;;3.00;99.90;;;;;;5031027;28;20183;-66
2022/12/19 07:53:15;;;;;;;14.70;11.70;;;3.00;99.90;;;;;;5031045;28;20254;-66
2022/12/19 07:55:41;;;;;;;18.93;12.57;;;3.00;99.90;;;;;;5013455;28;20182;-66
2022/12/19 07:58:09;;;;;;;18.37;12.63;;;3.00;99.90;;;;;;5031136;28;20672;-65
2022/12/19 08:00:35;;;;;;;16.50;12.33;;;3.10;99.90;;;;;;5030768;28;20175;-66
2022/12/19 08:03:01;;;;;;;16.50;10.40;;;3.10;99.90;;;;;;5031323;28;20171;-66
2022/12/19 08:05:26;;;;;;;18.47;13.33;;;3.10;99.90;;;;;;5031044;28;20571;-66
2022/12/19 08:07:52;;;;;;;18.57;12.67;;;3.20;99.90;;;;;;5013510;28;20200;-66
2022/12/19 08:10:18;;;;;;;17.13;12.50;;;3.20;99.90;;;;;;5030768;28;20183;-66
2022/12/19 08:12:45;;;;;;;16.97;12.67;;;3.20;99.90;;;;;;5031227;28;20175;-66
2022/12/19 08:15:10;;;;;;;22.60;15.70;;;3.30;99.90;;;;;;5030916;28;20179;-66
2022/12/19 08:17:37;;;;;;;18.90;14.97;;;3.30;99.90;;;;;;5013376;28;20213;-66
2022/12/19 08:20:04;;;;;;;15.20;13.50;;;3.30;99.90;;;;;;5030575;28;20253;-66
2022/12/19 08:22:30;;;;;;;17.13;15.33;;;3.30;99.90;;;;;;5013329;28;20198;-66
2022/12/19 08:24:56;;;;;;;16.17;14.17;;;3.30;99.90;;;;;;5031015;28;20183;-66
2022/12/19 08:27:22;;;;;;;14.93;13.23;;;3.40;99.90;;;;;;5030737;28;20194;-66
2022/12/19 08:29:48;;;;;;;16.10;14.30;;;3.30;99.90;;;;;;5022972;22;20228;-68
2022/12/19 08:32:15;;;;;;;14.30;12.73;;;3.40;99.90;;;;;;4970281;28;20191;-68
2022/12/19 08:34:40;;;;;;;16.47;14.70;;;3.40;99.90;;;;;;4988547;28;20533;-68
2022/12/19 08:37:07;;;;;;;15.33;13.73;;;3.40;99.90;;;;;;4988092;28;20216;-67
2022/12/19 08:39:32;;;;;;;23.30;14.53;;;3.40;99.90;;;;;;5001584;28;20218;-67
2022/12/19 08:41:58;;;;;;;16.10;14.63;;;3.40;99.90;;;;;;5008224;28;20177;-67
2022/12/19 08:44:24;;;;;;;18.37;13.90;;;3.40;99.90;;;;;;5023204;28;20176;-68
2022/12/19 08:46:49;;;;;;;18.07;13.67;;;3.40;99.90;;;;;;5008497;28;20172;-68
2022/12/19 08:49:15;;;;;;;17.00;13.20;;;3.50;99.90;;;;;;5007847;28;20212;-67
2022/12/19 08:51:41;;;;;;;22.80;12.60;;;3.50;99.90;;;;;;5008570;28;20636;-67
2022/12/19 08:54:06;;;;;;;20.93;15.77;;;3.50;99.90;;;;;;5008134;28;20177;-68
2022/12/19 08:56:32;;;;;;;19.63;13.47;;;3.50;99.90;;;;;;5008059;28;20195;-68
2022/12/19 08:58:57;;;;;;;15.80;13.93;;;3.50;99.90;;;;;;5008129;28;20203;-67
2022/12/19 09:01:24;;;;;;;18.07;14.20;;;3.60;99.90;;;;;;5007654;28;20179;-67
2022/12/19 09:03:50;;;;;;;16.37;14.70;;;3.60;99.90;;;;;;5007995;28;20172;-67
2022/12/19 09:06:16;;;;;;;19.37;15.67;;;3.60;99.90;;;;;;5008369;28;20618;-67
2022/12/19 09:08:42;;;;;;;21.00;13.87;;;3.60;99.90;;;;;;5009153;28;20204;-67
2022/12/19 09:11:12;;;;;;;17.00;13.70;;;3.70;99.90;;;;;;5011214;28;20177;-67
2022/12/19 09:13:39;;;;;;;19.13;15.97;;;3.70;99.90;;;;;;5010685;28;20188;-68
2022/12/19 09:16:13;;;;;;;16.17;14.57;;;3.80;99.90;;;;;;5011305;28;20192;-67
2022/12/19 09:18:40;;;;;;;15.30;13.30;;;3.80;99.90;;;;;;5011249;28;20196;-68
2022/12/19 09:21:06;;;;;;;14.90;12.73;;;3.80;99.90;;;;;;5011265;28;20251;-68
2022/12/19 09:23:32;;;;;;;21.90;14.90;;;3.80;99.90;;;;;;5010876;28;20180;-67
2022/12/19 09:26:09;;;;;;;18.17;13.77;;;3.90;99.90;;;;;;5011298;28;20185;-67
2022/12/19 09:28:36;;;;;;;19.27;11.83;;;3.90;99.90;;;;;;5010780;28;20219;-67
2022/12/19 09:31:05;;;;;;;22.37;14.00;;;3.90;99.90;;;;;;5010813;28;20585;-67
2022/12/19 09:33:33;;;;;;;14.03;12.27;;;4.00;99.90;;;;;;5011151;28;20207;-67
2022/12/19 09:35:59;;;;;;;18.80;16.07;;;4.00;99.90;;;;;;5009291;28;20184;-67
2022/12/19 09:38:26;;;;;;;15.70;12.77;;;4.10;99.90;;;;;;5010800;28;20206;-68
2022/12/19 09:40:57;;;;;;;13.63;12.40;;;4.10;99.90;;;;;;5010835;28;20164;-67
2022/12/19 09:44:00;;;;;;;19.87;13.07;;;4.10;99.90;;;;;;5010890;28;20188;-67
2022/12/19 09:46:31;;;;;;;16.47;12.43;;;4.20;99.90;;;;;;5010756;28;20171;-67
2022/12/19 09:49:00;;;;;;;19.57;13.00;;;4.20;99.90;;;;;;5010870;28;20568;-68
2022/12/19 09:51:45;;;;;;;18.87;13.50;;;4.20;99.90;;;;;;5010577;28;20168;-68
2022/12/19 09:54:19;;;;;;;13.90;11.30;;;4.30;99.90;;;;;;5010722;28;20184;-67
2022/12/19 09:56:46;;;;;;;17.57;14.87;;;4.30;99.90;;;;;;4993387;28;20208;-67
2022/12/19 09:59:27;;;;;;;22.40;13.37;;;4.30;99.90;;;;;;5010355;28;20196;-67
2022/12/19 10:02:07;;;;;;;13.70;12.30;;;4.40;99.90;;;;;;5010774;28;20172;-67
2022/12/19 10:04:35;;;;;;;16.37;13.33;;;4.30;99.90;;;;;;5010388;28;20180;-67
2022/12/19 10:07:00;;;;;;;16.80;15.07;;;4.40;99.90;;;;;;5009798;28;20208;-67
2022/12/19 10:09:33;;;;;;;16.60;14.63;;;4.40;99.90;;;;;;5010012;28;20231;-67
2022/12/19 10:12:14;;;;;;;19.30;14.13;;;4.40;99.90;;;;;;5010774;28;20168;-67
2022/12/19 10:15:07;;;;;;;17.63;15.77;;;4.40;99.90;;;;;;5018574;28;20236;-67
2022/12/19 10:17:32;;;;;;;25.40;14.93;;;4.40;99.90;;;;;;5010455;28;20300;-68
2022/12/19 10:20:20;;;;;;;20.13;14.10;;;4.50;99.90;;;;;;5009602;28;20295;-68
2022/12/19 10:23:09;;;;;;;21.50;12.83;;;4.50;99.90;;;;;;5010401;28;20176;-67
2022/12/19 10:25:50;;;;;;;19.27;14.30;;;4.50;99.90;;;;;;5007174;28;20191;-67
2022/12/19 10:28:27;;;;;;;21.67;13.80;;;4.50;99.90;;;;;;4998548;28;20273;-67
2022/12/19 10:31:21;;;;;;;18.90;13.10;;;4.50;99.90;;;;;;4997627;28;20183;-67
2022/12/19 10:34:05;;;;;;;29.10;14.30;;;4.50;99.90;;;;;;5004117;28;20724;-67
2022/12/19 10:36:41;;;;;;;19.57;14.57;;;4.50;99.90;;;;;;5018302;28;20693;-66
2022/12/19 10:39:15;;;;;;;22.60;13.73;;;4.60;99.90;;;;;;5017188;28;20279;-66
2022/12/19 10:41:42;;;;;;;27.37;15.83;;;4.60;99.90;;;;;;5017140;28;20168;-66
2022/12/19 10:44:09;;;;;;;26.00;14.67;;;4.60;99.90;;;;;;5016738;28;20196;-66
2022/12/19 10:46:37;;;;;;;25.60;14.40;;;4.70;99.90;;;;;;5016701;28;20172;-66
2022/12/19 10:49:25;;;;;;;17.73;14.50;;;4.80;99.90;;;;;;5015851;28;20673;-66
2022/12/19 10:52:06;;;;;;;15.90;13.40;;;4.80;99.90;;;;;;4997556;28;20547;-66
2022/12/19 10:54:44;;;;;;;18.10;13.87;;;4.80;99.90;;;;;;4994262;28;20528;-66
2022/12/19 10:57:25;;;;;;;15.50;13.33;;;4.70;99.90;;;;;;4975707;28;20204;-66
2022/12/19 10:59:59;;;;;;;18.23;13.53;;;4.70;99.90;;;;;;5016366;28;20252;-65
2022/12/19 11:02:32;;;;;;;18.83;13.70;;;4.70;99.90;;;;;;5015353;28;20164;-65
2022/12/19 11:04:58;;;;;;;16.47;11.63;;;4.60;99.90;;;;;;5016354;28;20169;-66
2022/12/19 11:07:23;;;;;;;23.90;13.83;;;4.60;99.90;;;;;;5015239;28;20645;-66
2022/12/19 11:09:49;;;;;;;22.20;14.30;;;4.50;99.90;;;;;;5016985;28;20198;-66
2022/12/19 11:12:17;;;;;;;18.40;14.10;;;4.60;99.90;;;;;;5016032;28;20168;-66
2022/12/19 11:14:50;;;;;;;20.43;14.73;;;4.50;99.90;;;;;;5016244;28;20207;-66
2022/12/19 11:17:41;;;;;;;21.37;13.50;;;4.60;99.90;;;;;;5016840;28;20204;-66
2022/12/19 11:20:18;;;;;;;17.20;13.33;;;4.60;99.90;;;;;;5017193;28;20204;-66
2022/12/19 11:22:56;;;;;;;14.60;12.40;;;4.70;99.90;;;;;;5018074;28;20530;-66
2022/12/19 11:25:39;;;;;;;16.53;14.73;;;4.70;99.90;;;;;;5018653;28;20188;-66
2022/12/19 11:28:33;;;;;;;18.37;13.63;;;4.70;99.90;;;;;;5018441;28;20225;-66
2022/12/19 11:31:20;;;;;;;22.73;13.60;;;4.80;99.90;;;;;;5018449;28;20222;-66
2022/12/19 11:33:52;;;;;;;20.53;14.23;;;4.90;99.90;;;;;;5016672;28;20210;-66
2022/12/19 11:36:46;;;;;;;19.77;13.93;;;4.90;99.90;;;;;;5015710;28;20192;-66
2022/12/19 11:39:20;;;;;;;19.80;14.07;;;5.00;99.90;;;;;;5014115;28;20195;-66
2022/12/19 11:42:20;;;;;;;16.77;13.07;;;5.10;99.90;;;;;;5029946;28;20250;-65
2022/12/19 11:45:10;;;;;;;19.53;14.10;;;5.10;99.90;;;;;;5014755;28;20188;-66
2022/12/19 11:47:59;;;;;;;22.33;14.87;;;5.20;99.90;;;;;;5014715;28;20271;-66
2022/12/19 11:50:33;;;;;;;23.20;15.07;;;5.20;99.90;;;;;;4994004;28;20230;-66
2022/12/19 11:53:47;;;;;;;16.40;13.63;;;5.30;99.90;;;;;;4997175;28;20181;-66
2022/12/19 11:56:17;;;;;;;28.63;14.07;;;5.30;99.90;;;;;;5033564;28;20787;-66
2022/12/19 11:58:51;;;;;;;31.23;15.20;;;5.30;99.90;;;;;;5034323;28;20195;-66
2022/12/19 12:01:20;;;;;;;20.20;13.00;;;5.30;99.90;;;;;;5024018;28;20203;-66
2022/12/19 12:04:03;;;;;;;23.00;14.30;;;5.40;99.90;;;;;;5015136;28;20631;-66
2022/12/19 12:06:44;;;;;;;19.47;14.00;;;5.40;99.90;;;;;;4993835;28;20222;-66
2022/12/19 12:09:17;;;;;;;28.63;15.53;;;5.50;99.90;;;;;;5009610;28;20455;-67
2022/12/19 12:12:08;;;;;;;23.93;15.83;;;5.50;99.90;;;;;;5014185;28;20233;-67
2022/12/19 12:14:42;;;;;;;19.47;15.03;;;5.50;99.90;;;;;;5013411;28;20186;-66
2022/12/19 12:17:20;;;;;;;20.60;14.20;;;5.50;99.90;;;;;;5015700;28;20810;-66
2022/12/19 12:19:48;;;;;;;19.77;13.30;;;5.50;99.90;;;;;;5012072;28;20204;-66
2022/12/19 12:22:34;;;;;;;26.47;15.40;;;5.50;99.90;;;;;;5085813;28;20256;-66
2022/12/19 12:25:16;;;;;;;21.93;15.37;;;5.50;99.90;;;;;;5078151;28;20735;-66
2022/12/19 12:28:20;;;;;;;23.13;13.40;;;5.50;99.90;;;;;;5013896;28;20194;-66
2022/12/19 12:31:11;;;;;;;14.90;12.33;;;5.50;99.90;;;;;;5036245;28;20202;-66
2022/12/19 12:33:58;;;;;;;25.43;14.87;;;5.50;99.90;;;;;;5016799;28;20196;-65
2022/12/19 12:36:36;;;;;;;13.90;11.50;;;5.60;99.90;;;;;;5013188;28;20223;-65
2022/12/19 12:39:17;;;;;;;18.10;12.67;;;5.60;99.90;;;;;;5012944;28;20665;-66
2022/12/19 12:42:04;;;;;;;19.43;13.70;;;5.60;99.90;;;;;;5011992;28;20188;-66
2022/12/19 12:44:38;;;;;;;16.17;12.97;;;5.60;99.90;;;;;;5014965;28;20176;-65
2022/12/19 12:47:24;;;;;;;21.13;11.33;;;5.60;99.90;;;;;;5015286;28;20172;-66
2022/12/19 12:50:16;;;;;;;21.77;14.80;;;5.60;99.90;;;;;;5013607;28;20195;-66
2022/12/19 12:52:46;;;;;;;20.50;13.73;;;5.60;99.90;;;;;;5014832;28;20180;-66
2022/12/19 12:55:26;;;;;;;20.27;13.67;;;5.60;99.90;;;;;;4996523;28;20185;-66
2022/12/19 12:57:52;;;;;;;17.50;13.03;;;5.50;99.90;;;;;;5014123;28;20208;-65
2022/12/19 13:01:04;;;;;;;17.93;11.50;;;5.50;99.90;;;;;;5013397;28;20211;-66
2022/12/19 13:03:29;;;;;;;21.90;13.03;;;5.50;99.90;;;;;;5017337;28;20597;-66